createdAt,value
2018-07-02T00:01:37.585Z,51.17
2018-07-02T00:05:52.428Z,51.46
2018-07-02T00:09:56.234Z,51.09
2018-07-02T00:13:59.857Z,52.25
2018-07-02T00:18:03.284Z,52.12
2018-07-02T00:22:06.725Z,51.41
2018-07-02T00:26:10.154Z,51.48
2018-07-02T00:30:13.561Z,50.54
2018-07-02T00:34:17.009Z,50.85
2018-07-02T00:38:20.450Z,51.53
2018-07-02T00:42:23.881Z,50.56
2018-07-02T00:46:27.280Z,50.97
2018-07-02T00:50:30.658Z,51.19
2018-07-02T00:54:34.095Z,51.41
2018-07-02T00:58:37.509Z,51.09
2018-07-02T01:02:40.943Z,51.85
2018-07-02T01:06:44.347Z,52.90
2018-07-02T01:10:47.894Z,53.90
2018-07-02T01:14:51.357Z,53.51
2018-07-02T01:18:54.789Z,53.59
2018-07-02T01:22:58.193Z,54.30
2018-07-02T01:27:01.623Z,54.71
2018-07-02T01:31:05.112Z,54.53
2018-07-02T01:35:08.700Z,54.02
2018-07-02T01:39:12.124Z,54.88
2018-07-02T01:43:15.545Z,55.07
2018-07-02T01:47:18.961Z,54.76
2018-07-02T01:51:22.368Z,54.45
2018-07-02T01:55:25.868Z,55.36
2018-07-02T01:59:29.290Z,54.57
2018-07-02T02:03:32.693Z,54.88
2018-07-02T02:07:36.146Z,55.06
2018-07-02T02:11:39.697Z,55.73
2018-07-02T02:15:43.121Z,56.02
2018-07-02T02:19:46.518Z,56.19
2018-07-02T02:23:49.978Z,55.90
2018-07-02T02:27:53.408Z,55.68
2018-07-02T02:31:56.896Z,56.15
2018-07-02T02:36:00.321Z,55.78
2018-07-02T02:40:03.924Z,56.24
2018-07-02T02:44:07.732Z,56.67
2018-07-02T02:48:11.135Z,56.17
2018-07-02T02:52:14.551Z,56.58
2018-07-02T02:56:17.970Z,56.73
2018-07-02T03:00:21.381Z,56.89
2018-07-02T03:04:24.822Z,57.54
2018-07-02T03:08:28.237Z,58.34
2018-07-02T03:12:31.646Z,58.07
2018-07-02T03:16:35.119Z,58.02
2018-07-02T03:20:38.742Z,57.64
2018-07-02T03:24:42.420Z,57.61
2018-07-02T03:28:45.832Z,57.95
2018-07-02T03:32:49.429Z,58.79
2018-07-02T03:36:52.841Z,57.78
2018-07-02T03:40:56.377Z,57.90
2018-07-02T03:45:00.135Z,58.19
2018-07-02T03:49:03.697Z,58.97
2018-07-02T03:53:07.105Z,58.83
2018-07-02T03:57:10.572Z,58.59
2018-07-02T04:01:14.081Z,59.13
2018-07-02T04:05:17.521Z,59.44
2018-07-02T04:09:20.925Z,59.33
2018-07-02T04:13:24.381Z,59.58
2018-07-02T04:17:27.846Z,59.38
2018-07-02T04:21:31.286Z,60.49
2018-07-02T04:25:34.901Z,60.50
2018-07-02T04:29:38.400Z,60.11
2018-07-02T04:33:41.806Z,59.64
2018-07-02T04:37:46.137Z,58.90
2018-07-02T04:41:49.558Z,57.65
2018-07-02T04:45:52.993Z,57.27
2018-07-02T04:49:56.481Z,57.13
2018-07-02T04:53:59.923Z,56.75
2018-07-02T04:58:03.687Z,57.29
2018-07-02T05:02:07.117Z,57.76
2018-07-02T05:06:10.633Z,57.89
2018-07-02T05:10:14.025Z,57.68
2018-07-02T05:14:17.479Z,58.15
2018-07-02T05:18:20.929Z,57.85
2018-07-02T05:22:24.320Z,57.87
2018-07-02T05:26:27.829Z,58.33
2018-07-02T05:30:31.252Z,57.98
2018-07-02T05:34:34.689Z,58.13
2018-07-02T05:38:38.122Z,57.19
2018-07-02T05:42:41.573Z,56.50
2018-07-02T05:46:45.012Z,57.41
2018-07-02T05:50:48.459Z,55.94
2018-07-02T05:54:51.952Z,55.47
2018-07-02T05:58:55.334Z,54.08
2018-07-02T06:02:58.783Z,54.35
2018-07-02T06:07:02.195Z,53.55
2018-07-02T06:11:05.634Z,53.76
2018-07-02T06:15:09.058Z,53.50
2018-07-02T06:19:12.483Z,53.65
2018-07-02T06:23:15.947Z,51.54
2018-07-02T06:27:19.670Z,52.14
2018-07-02T06:31:23.074Z,52.39
2018-07-02T06:35:26.469Z,52.12
2018-07-02T06:39:29.906Z,50.42
2018-07-02T06:43:33.289Z,49.75
2018-07-02T06:47:36.707Z,48.35
2018-07-02T06:51:40.116Z,47.41
2018-07-02T06:55:43.585Z,47.83
2018-07-02T06:59:47.181Z,47.15
2018-07-02T07:03:50.607Z,45.72
2018-07-02T07:07:54.041Z,45.00
2018-07-02T07:11:57.434Z,45.11
2018-07-02T07:16:00.872Z,44.71
2018-07-02T07:20:04.734Z,44.90
2018-07-02T07:24:08.165Z,43.69
2018-07-02T07:28:11.555Z,43.48
2018-07-02T07:32:15.002Z,44.07
2018-07-02T07:36:18.916Z,42.38
2018-07-02T07:40:22.368Z,42.56
2018-07-02T07:44:25.848Z,41.66
2018-07-02T07:48:29.538Z,42.05
2018-07-02T07:52:32.945Z,41.79
2018-07-02T07:56:36.400Z,41.43
2018-07-02T08:00:39.786Z,41.35
2018-07-02T08:08:46.625Z,40.71
2018-07-02T08:12:50.013Z,40.07
2018-07-02T08:16:53.462Z,40.21
2018-07-02T08:20:56.862Z,38.51
2018-07-02T08:25:00.296Z,39.24
2018-07-02T08:29:03.812Z,38.01
2018-07-02T08:33:07.262Z,39.10
2018-07-02T08:37:10.906Z,37.77
2018-07-02T08:41:14.305Z,37.43
2018-07-02T08:45:17.749Z,36.64
2018-07-02T08:49:21.173Z,34.73
2018-07-02T08:53:24.857Z,34.47
2018-07-02T08:57:28.323Z,35.41
2018-07-02T09:01:31.804Z,34.54
2018-07-02T09:05:35.613Z,34.44
2018-07-02T09:09:39.028Z,34.12
2018-07-02T09:13:42.850Z,33.01
2018-07-02T09:17:46.257Z,34.12
2018-07-02T09:21:49.733Z,33.14
2018-07-02T09:25:53.094Z,33.68
2018-07-02T09:29:56.525Z,35.02
2018-07-02T09:33:59.953Z,34.78
2018-07-02T09:38:03.378Z,33.89
2018-07-02T09:42:06.818Z,35.62
2018-07-02T09:46:10.257Z,34.69
2018-07-02T09:50:13.742Z,33.90
2018-07-02T09:54:17.244Z,32.93
2018-07-02T09:58:20.681Z,32.08
2018-07-02T10:02:24.113Z,32.44
2018-07-02T10:06:27.504Z,32.53
2018-07-02T10:10:30.965Z,31.13
2018-07-02T10:14:34.435Z,31.52
2018-07-02T10:18:37.894Z,31.03
2018-07-02T10:22:41.378Z,32.83
2018-07-02T10:26:44.789Z,31.79
2018-07-02T10:30:48.248Z,30.55
2018-07-02T10:34:51.698Z,31.38
2018-07-02T10:38:55.101Z,30.72
2018-07-02T10:42:58.563Z,30.90
2018-07-02T10:47:02.003Z,31.57
2018-07-02T10:51:05.380Z,32.12
2018-07-02T10:55:08.910Z,31.60
2018-07-02T10:59:12.330Z,30.75
2018-07-02T11:03:15.721Z,30.66
2018-07-02T11:07:19.108Z,31.57
2018-07-02T11:11:22.591Z,31.38
2018-07-02T11:15:27.073Z,29.96
2018-07-02T11:19:30.730Z,30.84
2018-07-02T11:23:34.156Z,31.58
2018-07-02T11:27:37.574Z,31.47
2018-07-02T11:31:40.983Z,32.22
2018-07-02T11:35:44.440Z,31.82
2018-07-02T11:39:47.902Z,31.96
2018-07-02T11:43:51.367Z,32.71
2018-07-02T11:47:54.753Z,32.05
2018-07-02T11:51:58.188Z,32.02
2018-07-02T11:56:01.607Z,32.00
2018-07-02T12:00:05.924Z,31.96
2018-07-02T12:04:09.531Z,32.55
2018-07-02T12:08:12.943Z,30.87
2018-07-02T12:12:16.351Z,31.76
2018-07-02T12:16:19.756Z,31.49
2018-07-02T12:20:23.193Z,31.84
2018-07-02T12:24:26.600Z,30.89
2018-07-02T12:28:30.023Z,31.49
2018-07-02T12:32:33.456Z,31.88
2018-07-02T12:36:36.899Z,32.04
2018-07-02T12:40:40.286Z,31.37
2018-07-02T12:44:43.712Z,31.00
2018-07-02T12:48:47.122Z,31.33
2018-07-02T12:52:50.589Z,32.30
2018-07-02T12:56:54.090Z,32.79
2018-07-02T13:00:57.525Z,30.51
2018-07-02T13:05:00.951Z,32.25
2018-07-02T13:09:06.981Z,30.85
2018-07-02T13:13:10.406Z,32.39
2018-07-02T13:17:13.810Z,31.28
2018-07-02T13:25:47.669Z,31.08
2018-07-02T13:39:09.235Z,31.06
2018-07-02T13:50:55.151Z,31.09
2018-07-02T14:12:49.375Z,31.05
2018-07-02T14:34:50.288Z,32.06
2018-07-02T14:39:00.296Z,32.47
2018-07-02T14:43:23.545Z,34.58
2018-07-02T14:52:11.300Z,31.78
2018-07-02T14:56:21.145Z,32.04
2018-07-02T15:00:29.985Z,32.38
2018-07-02T15:04:44.554Z,33.34
2018-07-02T15:08:53.141Z,33.72
2018-07-02T15:13:01.644Z,35.16
2018-07-02T15:17:13.107Z,34.26
2018-07-02T15:21:29.482Z,33.19
2018-07-02T15:25:44.644Z,32.13
2018-07-02T15:29:52.886Z,33.68
2018-07-02T15:34:07.167Z,32.20
2018-07-02T15:38:20.756Z,32.35
2018-07-02T15:42:39.184Z,32.70
2018-07-02T15:46:56.694Z,33.17
2018-07-02T15:51:11.293Z,32.60
2018-07-02T15:55:26.750Z,32.37
2018-07-02T15:59:41.103Z,33.20
2018-07-02T16:03:51.210Z,33.25
2018-07-02T16:12:19.606Z,32.43
2018-07-02T16:16:31.483Z,32.64
2018-07-02T16:20:47.317Z,33.57
2018-07-02T16:24:52.929Z,33.81
2018-07-02T16:28:57.411Z,33.18
2018-07-02T16:33:06.232Z,31.98
2018-07-02T16:37:13.760Z,31.75
2018-07-02T16:41:22.274Z,31.98
2018-07-02T16:50:07.888Z,32.05
2018-07-02T16:54:12.351Z,33.53
2018-07-02T17:02:41.417Z,34.00
2018-07-02T17:06:52.348Z,33.43
2018-07-02T17:11:05.517Z,34.33
2018-07-02T17:19:34.434Z,35.46
2018-07-02T17:23:46.851Z,33.65
2018-07-02T17:27:54.754Z,34.92
2018-07-02T17:32:02.881Z,34.38
2018-07-02T17:36:16.459Z,36.07
2018-07-02T17:40:25.451Z,34.28
2018-07-02T17:44:29.334Z,34.71
2018-07-02T17:48:37.309Z,34.32
2018-07-02T17:52:47.395Z,33.69
2018-07-02T17:56:54.430Z,35.06
2018-07-02T18:01:06.946Z,35.09
2018-07-02T18:05:14.768Z,35.02
2018-07-02T18:09:19.525Z,35.12
2018-07-02T18:13:32.162Z,34.75
2018-07-02T18:17:39.741Z,34.16
2018-07-02T18:21:58.488Z,34.81
2018-07-02T18:26:09.530Z,35.23
2018-07-02T18:34:30.324Z,35.27
2018-07-02T18:38:44.165Z,35.26
2018-07-02T18:42:49.963Z,35.81
2018-07-02T18:47:02.835Z,36.95
2018-07-02T18:51:10.648Z,36.42
2018-07-02T18:55:24.959Z,36.93
2018-07-02T18:59:35.315Z,36.81
2018-07-02T19:03:45.246Z,37.21
2018-07-02T19:08:02.450Z,37.83
2018-07-02T19:12:08.688Z,38.77
2018-07-02T19:16:18.674Z,38.69
2018-07-02T19:20:31.212Z,39.12
2018-07-02T19:24:41.313Z,40.81
2018-07-02T19:28:51.272Z,41.04
2018-07-02T19:33:00.187Z,39.02
2018-07-02T19:37:08.464Z,38.88
2018-07-02T19:41:17.608Z,38.27
2018-07-02T19:45:23.522Z,38.64
2018-07-02T19:49:34.862Z,39.11
2018-07-02T19:53:44.568Z,38.33
2018-07-02T19:57:54.009Z,39.60
2018-07-02T20:02:03.053Z,38.74
2018-07-02T20:06:10.223Z,38.63
2018-07-02T20:10:20.144Z,38.51
2018-07-02T20:14:43.004Z,38.29
2018-07-02T20:18:57.833Z,38.62
2018-07-02T20:23:07.113Z,38.16
2018-07-02T20:27:19.147Z,39.54
2018-07-02T20:31:31.793Z,39.09
2018-07-02T20:35:49.438Z,39.26
2018-07-02T20:40:05.951Z,39.68
2018-07-02T20:44:28.626Z,40.41
2018-07-02T20:48:46.129Z,42.07
2018-07-02T21:01:25.707Z,44.09
2018-07-02T21:05:35.965Z,44.14
2018-07-02T21:14:05.173Z,45.07
2018-07-02T21:22:29.965Z,46.09
2018-07-02T21:26:39.773Z,46.55
2018-07-02T21:30:49.501Z,45.50
2018-07-02T21:39:23.431Z,45.73
2018-07-02T21:47:54.710Z,46.34
2018-07-02T21:52:05.167Z,46.53
2018-07-02T21:56:21.851Z,46.49
2018-07-02T22:09:18.113Z,47.79
2018-07-02T22:13:24.200Z,48.02
2018-07-02T22:17:38.664Z,47.82
2018-07-02T22:21:48.075Z,48.19
2018-07-02T22:30:14.099Z,48.12
2018-07-02T22:34:30.767Z,48.46
2018-07-02T22:38:49.174Z,49.36
2018-07-02T22:43:00.388Z,50.59
2018-07-02T22:51:33.097Z,51.04
2018-07-02T22:55:52.573Z,51.21
2018-07-02T22:59:59.603Z,51.65
2018-07-02T23:04:11.026Z,51.86
2018-07-02T23:08:20.791Z,51.55
2018-07-02T23:12:32.842Z,51.68
2018-07-02T23:16:44.807Z,50.95
2018-07-02T23:25:14.016Z,51.68
2018-07-02T23:29:24.025Z,51.95
2018-07-02T23:33:34.374Z,51.82
2018-07-02T23:37:49.313Z,52.46
2018-07-02T23:42:01.286Z,52.63
2018-07-02T23:50:26.739Z,52.90
2018-07-02T23:54:39.028Z,53.34
